KCBF

Council Bluffs Municipal Airport

Council Bluffs, Iowa, USA
METAR KCBF 271155Z AUTO 20005KT 10SM CLR 24/18 A2983 RMK AO2
Observed Flight Rules
May-27 @ 11:55 UTC (12 minutes ago) Visual Flight Rules
Wind Visibility Clouds
200° at 5 knots 10 miles
  • Clear skies
Temperatures Readings
Current 24°C / 75°F
Dewpoint 18°C / 64°F
Humidity 69%
Altimeter 29.83" Hg
Pressure 1010 hPa
Elevation 382
METAR KCBF 271155Z AUTO 20005KT 10SM CLR 24/18 A2983 RMK AO2
Observed Flight Rules
May-27 @ 11:55 UTC
(12 minutes ago)
VFR
Wind Visibility
200° at 5 knots 10 miles
Clouds
  • Clear skies
Temperature Dewpoint
24°C / 75°F 18°C / 64°F
Humidity Altimeter Pressure
69% 29.83" Hg 1010 hPa